Time;durP1;ratioP1;P1;durP2;ratioP2;P2;SDS_P1;SDS_P2;PMS_P1;PMS_P2;Temp;Humidity;BMP_temperature;BMP_pressure;BME280_temperature;BME280_humidity;BME280_pressure;Samples;Min_cycle;Max_cycle;Signal;HPM_P1;HPM_P2
2021/10/01 00:00:31;;;;;;;3.33;0.70;;;10.00;99.90;;;;;;10339180;28;20093;-90
2021/10/01 00:05:32;;;;;;;5.55;1.05;;;9.90;99.90;;;;;;10337770;28;20103;-91
2021/10/01 00:10:34;;;;;;;3.70;0.57;;;9.80;99.90;;;;;;10321472;28;20056;-91
2021/10/01 00:15:37;;;;;;;2.95;0.50;;;9.70;99.90;;;;;;10342920;28;20056;-91
2021/10/01 00:20:38;;;;;;;5.10;1.08;;;9.70;99.90;;;;;;10338261;28;20110;-91
2021/10/01 00:25:40;;;;;;;1.85;0.73;;;9.40;99.90;;;;;;10329810;28;20399;-91
2021/10/01 00:30:42;;;;;;;4.75;1.27;;;9.30;99.90;;;;;;10341056;28;20054;-91
2021/10/01 00:35:44;;;;;;;3.38;0.85;;;9.30;99.90;;;;;;10344349;28;20050;-91
2021/10/01 00:40:46;;;;;;;1.33;0.80;;;9.30;99.90;;;;;;10348640;28;20058;-91
2021/10/01 00:45:48;;;;;;;3.05;0.50;;;9.10;99.90;;;;;;10348689;28;20048;-90
2021/10/01 00:50:50;;;;;;;2.17;0.90;;;9.10;99.90;;;;;;10301207;28;20117;-90
2021/10/01 00:55:52;;;;;;;2.78;0.52;;;9.10;99.90;;;;;;10339730;28;20074;-90
2021/10/01 01:01:12;;;;;;;4.07;1.25;;;9.10;99.90;;;;;;10333715;28;20133;-90
2021/10/01 01:06:27;;;;;;;3.83;1.80;;;9.00;99.90;;;;;;10347221;28;20085;-90
2021/10/01 01:11:58;;;;;;;2.92;0.90;;;8.90;99.90;;;;;;10347982;28;20049;-89
2021/10/01 01:17:01;;;;;;;4.15;1.15;;;8.80;99.90;;;;;;10343499;28;20080;-90
2021/10/01 01:22:25;;;;;;;6.22;0.90;;;8.70;99.90;;;;;;10341769;28;20108;-90
2021/10/01 01:27:45;;;;;;;3.15;1.10;;;8.70;99.90;;;;;;10338174;28;20050;-89
2021/10/01 01:32:48;;;;;;;3.75;0.90;;;8.60;99.90;;;;;;10348201;28;20053;-90
2021/10/01 01:38:21;;;;;;;2.25;1.40;;;8.60;99.90;;;;;;10322745;28;20060;-89
2021/10/01 01:43:24;;;;;;;1.20;0.82;;;8.50;99.90;;;;;;10324708;28;20120;-90
2021/10/01 01:48:26;;;;;;;4.50;1.23;;;8.40;99.90;;;;;;10342092;28;20056;-90
2021/10/01 01:53:29;;;;;;;1.63;0.90;;;8.30;99.90;;;;;;10324914;28;20117;-91
2021/10/01 01:58:33;;;;;;;5.90;1.10;;;8.20;99.90;;;;;;10338427;28;20730;-91
2021/10/01 02:03:36;;;;;;;3.50;1.10;;;8.10;99.90;;;;;;10334416;28;20587;-91
2021/10/01 02:08:39;;;;;;;1.83;1.00;;;8.10;99.90;;;;;;10305286;28;20065;-91
2021/10/01 02:13:43;;;;;;;2.03;1.02;;;8.10;99.90;;;;;;10364055;28;20554;-90
2021/10/01 02:18:48;;;;;;;4.20;1.05;;;8.00;99.90;;;;;;10333225;28;20049;-90
2021/10/01 02:23:51;;;;;;;3.55;0.70;;;7.90;99.90;;;;;;10364219;28;20112;-90
2021/10/01 02:28:57;;;;;;;3.13;0.75;;;7.90;99.90;;;;;;10328888;28;20045;-91
2021/10/01 02:34:02;;;;;;;2.83;0.90;;;7.90;99.90;;;;;;10340367;28;20061;-91
2021/10/01 02:39:04;;;;;;;3.83;1.60;;;7.80;99.90;;;;;;10335403;28;20054;-90
2021/10/01 02:44:06;;;;;;;3.00;1.10;;;7.70;99.90;;;;;;10350357;28;20054;-91
2021/10/01 02:49:08;;;;;;;2.78;0.68;;;7.70;99.90;;;;;;10351477;28;20042;-90
2021/10/01 02:54:14;;;;;;;4.93;0.70;;;7.60;99.90;;;;;;10352671;28;20839;-90
2021/10/01 02:59:17;;;;;;;2.05;0.60;;;7.60;99.90;;;;;;10349356;28;20745;-91
2021/10/01 03:04:23;;;;;;;2.38;1.00;;;7.60;99.90;;;;;;10349887;28;20454;-90
2021/10/01 03:09:28;;;;;;;2.40;0.80;;;7.50;99.90;;;;;;10322934;28;20054;-91
2021/10/01 03:14:31;;;;;;;2.13;0.60;;;7.50;99.90;;;;;;10366328;28;20397;-90
2021/10/01 03:25:56;;;;;;;2.67;0.70;;;7.40;99.90;;;;;;10339277;28;20069;-91
2021/10/01 03:30:58;;;;;;;2.92;0.73;;;7.20;99.90;;;;;;10343733;28;20054;-91
2021/10/01 03:36:01;;;;;;;1.13;0.47;;;7.20;99.90;;;;;;10364601;28;20050;-91
2021/10/01 03:41:03;;;;;;;2.78;0.73;;;7.20;99.90;;;;;;10374396;28;20138;-90
2021/10/01 03:46:04;;;;;;;2.53;1.00;;;7.20;99.90;;;;;;10328854;28;20496;-90
2021/10/01 03:51:06;;;;;;;2.30;0.70;;;7.10;99.90;;;;;;10333679;28;20050;-90
2021/10/01 03:56:17;;;;;;;5.07;0.80;;;7.10;99.90;;;;;;10352462;28;20056;-90
2021/10/01 04:01:19;;;;;;;2.85;1.20;;;7.00;99.90;;;;;;10340952;28;20061;-90
2021/10/01 04:06:49;;;;;;;4.65;0.85;;;7.00;99.90;;;;;;10328305;28;20069;-90
2021/10/01 04:11:55;;;;;;;3.97;1.02;;;7.00;99.90;;;;;;10364968;28;20065;-90
2021/10/01 04:16:57;;;;;;;3.55;0.80;;;6.90;99.90;;;;;;10352719;28;20050;-90
2021/10/01 04:21:58;;;;;;;6.03;2.35;;;6.90;99.90;;;;;;10344349;28;20050;-90
2021/10/01 04:27:00;;;;;;;1.83;0.93;;;6.90;99.90;;;;;;10319296;28;20054;-90
2021/10/01 04:32:05;;;;;;;2.13;0.90;;;6.80;99.90;;;;;;10333195;28;20523;-91
2021/10/01 04:37:07;;;;;;;2.33;1.15;;;6.80;99.90;;;;;;10339738;28;20046;-90
2021/10/01 04:42:08;;;;;;;5.03;1.80;;;6.80;99.90;;;;;;10341619;28;20124;-91
2021/10/01 04:47:10;;;;;;;4.53;0.65;;;6.80;99.90;;;;;;10332942;28;20118;-91
2021/10/01 04:52:12;;;;;;;1.55;0.93;;;6.70;99.90;;;;;;10329226;28;20085;-91
2021/10/01 04:57:14;;;;;;;2.75;0.70;;;6.70;99.90;;;;;;10343625;28;20046;-91
2021/10/01 05:02:16;;;;;;;2.30;1.33;;;6.70;99.90;;;;;;10345483;28;20049;-92
2021/10/01 05:07:19;;;;;;;2.45;1.20;;;6.70;99.90;;;;;;10343237;28;20068;-90
2021/10/01 05:12:21;;;;;;;7.72;1.52;;;6.60;99.90;;;;;;10335119;28;20136;-90
2021/10/01 05:17:26;;;;;;;3.17;0.88;;;;;;;;;;10300915;28;20117;-91
2021/10/01 05:22:28;;;;;;;2.92;0.93;;;6.50;99.90;;;;;;10317024;28;20471;-91
2021/10/01 05:27:30;;;;;;;4.03;1.00;;;6.60;99.90;;;;;;10326969;28;20104;-90
2021/10/01 05:32:32;;;;;;;4.18;0.90;;;6.60;99.90;;;;;;10346757;28;20062;-89
2021/10/01 05:37:34;;;;;;;3.83;1.13;;;6.60;99.90;;;;;;10315062;28;20049;-91
2021/10/01 05:42:36;;;;;;;6.63;1.50;;;6.60;99.90;;;;;;10300200;28;20080;-90
2021/10/01 05:47:38;;;;;;;5.53;1.20;;;6.60;99.90;;;;;;10356753;28;20072;-90
2021/10/01 05:52:51;;;;;;;2.55;1.13;;;6.60;99.90;;;;;;10321772;28;20149;-90
2021/10/01 05:57:54;;;;;;;4.03;1.25;;;6.60;99.90;;;;;;10324722;28;20099;-90
2021/10/01 06:02:56;;;;;;;9.68;1.77;;;6.60;99.90;;;;;;10347169;28;20057;-90
2021/10/01 06:07:59;;;;;;;5.53;1.30;;;6.70;99.90;;;;;;10323970;28;20109;-91
2021/10/01 06:13:01;;;;;;;3.75;1.00;;;6.70;99.90;;;;;;10306900;28;20061;-91
2021/10/01 06:18:03;;;;;;;2.53;1.10;;;6.80;99.90;;;;;;10309606;28;20065;-90
2021/10/01 06:23:05;;;;;;;4.78;1.42;;;6.80;99.90;;;;;;10316238;28;20057;-90
2021/10/01 06:28:07;;;;;;;9.15;0.98;;;7.00;99.90;;;;;;10315247;28;20054;-91
2021/10/01 06:33:09;;;;;;;7.30;1.90;;;7.00;99.90;;;;;;10297399;28;20078;-91
2021/10/01 06:38:11;;;;;;;2.95;0.93;;;7.20;99.90;;;;;;10303431;28;20130;-91
2021/10/01 06:43:16;;;;;;;9.48;1.17;;;7.30;99.90;;;;;;10265346;28;20054;-91
2021/10/01 06:48:51;;;;;;;5.15;1.55;;;;;;;;;;10299138;28;20100;-91
2021/10/01 08:19:42;;;;;;;7.78;1.40;;;;;;;;;;10262254;28;20505;-92
2021/10/01 08:24:47;;;;;;;4.28;1.38;;;10.70;99.90;;;;;;10286835;28;20123;-91
2021/10/01 08:29:57;;;;;;;;;;;10.80;99.90;;;;;;10106324;28;20113;-92
2021/10/01 08:35:03;;;;;;;5.60;1.92;;;11.00;99.90;;;;;;10308550;28;19987;-92
2021/10/01 08:40:09;;;;;;;7.07;1.48;;;11.10;99.90;;;;;;10256070;28;20049;-92
2021/10/01 08:45:14;;;;;;;5.18;2.15;;;11.30;99.90;;;;;;10281906;28;20058;-92
2021/10/01 08:50:21;;;;;;;5.93;1.75;;;11.50;99.90;;;;;;10213360;28;20105;-92
2021/10/01 08:55:27;;;;;;;4.70;1.30;;;11.70;99.90;;;;;;10147648;28;20050;-92
2021/10/01 09:00:36;;;;;;;2.03;1.27;;;11.90;99.90;;;;;;10028122;28;20051;-92
2021/10/01 09:05:39;;;;;;;4.25;1.75;;;11.90;99.90;;;;;;10204259;28;20045;-92
2021/10/01 09:10:59;;;;;;;3.85;1.42;;;12.10;99.90;;;;;;10251797;28;20351;-92
2021/10/01 09:16:14;;;;;;;5.53;1.97;;;12.20;99.90;;;;;;10120887;28;20051;-92
2021/10/01 09:21:33;;;;;;;4.95;1.48;;;12.40;99.90;;;;;;9984222;28;20307;-92
2021/10/01 09:26:52;;;;;;;6.43;1.55;;;12.60;99.90;;;;;;10147047;28;20050;-90
2021/10/01 09:32:21;;;;;;;2.55;1.02;;;12.70;99.90;;;;;;10305901;28;20053;-91
2021/10/01 09:37:31;;;;;;;7.38;2.05;;;12.70;99.90;;;;;;10341539;28;20053;-91
2021/10/01 09:42:47;;;;;;;2.50;1.10;;;13.00;99.90;;;;;;10348367;28;20132;-91
2021/10/01 09:47:50;;;;;;;4.80;1.40;;;13.00;99.90;;;;;;10326139;28;20053;-91
2021/10/01 09:52:58;;;;;;;3.83;1.35;;;13.10;99.90;;;;;;10286167;28;20058;-90
2021/10/01 09:58:06;;;;;;;4.32;1.50;;;13.40;99.90;;;;;;10303945;28;20415;-91
2021/10/01 10:03:13;;;;;;;3.00;1.88;;;13.40;99.90;;;;;;10335213;28;20104;-91
2021/10/01 10:08:18;;;;;;;5.32;1.20;;;13.40;99.90;;;;;;10338215;28;20136;-90
2021/10/01 10:13:40;;;;;;;9.48;2.28;;;13.60;99.90;;;;;;10315892;28;20134;-91
2021/10/01 10:18:45;;;;;;;6.40;1.67;;;13.90;99.80;;;;;;10311362;28;20076;-90
2021/10/01 10:23:48;;;;;;;4.47;1.13;;;14.10;98.80;;;;;;10309590;28;20058;-91
2021/10/01 10:28:52;;;;;;;2.92;0.70;;;14.50;99.00;;;;;;10322663;28;20077;-91
2021/10/01 10:33:57;;;;;;;4.80;0.90;;;14.60;96.70;;;;;;10322923;28;20050;-91
2021/10/01 10:39:35;;;;;;;5.43;0.50;;;14.80;96.30;;;;;;10289919;28;20046;-91
2021/10/01 10:44:40;;;;;;;4.97;0.50;;;14.80;95.00;;;;;;10301876;28;20042;-91
2021/10/01 10:49:43;;;;;;;4.78;0.45;;;14.80;94.50;;;;;;10284509;28;20077;-91
2021/10/01 10:54:52;;;;;;;3.35;0.50;;;14.90;93.20;;;;;;10300982;28;20197;-91
2021/10/01 10:59:57;;;;;;;1.13;0.40;;;15.10;93.10;;;;;;10310248;28;20137;-91
2021/10/01 11:05:28;;;;;;;1.05;0.32;;;15.20;92.60;;;;;;10342845;28;20091;-91
2021/10/01 11:10:50;;;;;;;2.92;0.50;;;15.50;91.70;;;;;;10353249;28;20053;-91
2021/10/01 11:16:18;;;;;;;4.88;0.75;;;15.60;91.80;;;;;;10217494;28;20061;-91
2021/10/01 11:21:27;;;;;;;0.85;0.30;;;15.90;91.00;;;;;;10310699;28;20056;-91
2021/10/01 11:26:57;;;;;;;2.67;0.40;;;16.20;90.60;;;;;;10270293;28;20052;-91
2021/10/01 11:32:16;;;;;;;3.58;0.30;;;16.40;89.40;;;;;;10313183;28;20050;-91
2021/10/01 11:37:27;;;;;;;2.70;0.40;;;16.40;89.40;;;;;;10303523;28;20691;-91
2021/10/01 11:42:37;;;;;;;3.22;0.40;;;16.40;89.90;;;;;;10249849;28;20413;-91
2021/10/01 11:47:59;;;;;;;1.52;0.40;;;16.90;87.60;;;;;;10206516;28;20121;-91
2021/10/01 11:53:20;;;;;;;;;;;17.30;87.20;;;;;;10132198;28;20137;-91
2021/10/01 11:58:26;;;;;;;1.75;0.35;;;17.40;83.00;;;;;;10188983;28;20020;-91
2021/10/01 12:03:29;;;;;;;4.72;0.80;;;17.90;80.20;;;;;;10217754;28;20137;-91
2021/10/01 12:08:35;;;;;;;3.40;0.40;;;17.80;79.70;;;;;;10303409;28;20053;-91
2021/10/01 12:13:39;;;;;;;4.72;1.20;;;18.30;79.60;;;;;;10315991;28;20088;-91
2021/10/01 12:18:57;;;;;;;0.98;0.25;;;18.30;76.50;;;;;;10311364;28;20061;-91
2021/10/01 12:24:10;;;;;;;4.05;0.20;;;18.40;76.10;;;;;;10319510;28;20054;-91
2021/10/01 12:29:19;;;;;;;4.68;0.25;;;18.70;74.00;;;;;;10313890;28;20420;-91
2021/10/01 12:34:37;;;;;;;1.27;0.45;;;19.10;73.10;;;;;;10181837;28;20134;-93
2021/10/01 12:39:42;;;;;;;0.98;0.68;;;19.40;73.10;;;;;;10307021;28;20047;-92
2021/10/01 12:45:18;;;;;;;5.32;1.58;;;19.30;74.00;;;;;;10167040;28;20107;-93
2021/10/01 12:50:53;;;;;;;2.05;0.90;;;19.90;74.00;;;;;;9961260;28;20881;-92
2021/10/01 12:56:19;;;;;;;2.95;0.30;;;20.10;71.30;;;;;;10189737;28;20130;-91
2021/10/01 13:01:30;;;;;;;;;;;19.60;67.70;;;;;;10232314;28;20512;-90
2021/10/01 13:06:33;;;;;;;1.67;0.30;;;19.90;69.90;;;;;;10326188;28;19929;-90
2021/10/01 13:11:49;;;;;;;1.55;0.30;;;19.70;70.80;;;;;;10289412;28;20133;-89
2021/10/01 13:16:51;;;;;;;0.47;0.20;;;19.80;67.70;;;;;;10353292;28;20053;-90
2021/10/01 13:21:56;;;;;;;2.25;0.25;;;20.00;67.40;;;;;;10333557;28;20178;-90
2021/10/01 13:26:58;;;;;;;1.30;0.20;;;20.20;69.40;;;;;;10183852;28;20523;-90
2021/10/01 13:32:01;;;;;;;2.85;0.57;;;19.60;68.90;;;;;;10247005;28;20054;-90
2021/10/01 13:37:08;;;;;;;0.70;0.20;;;20.30;68.60;;;;;;10127764;28;20057;-90
2021/10/01 13:42:28;;;;;;;2.55;0.20;;;20.10;69.00;;;;;;10334140;28;20068;-91
2021/10/01 13:47:33;;;;;;;3.13;0.20;;;20.00;66.90;;;;;;10244014;28;20081;-90
2021/10/01 13:52:41;;;;;;;3.22;0.28;;;20.30;67.00;;;;;;10287666;28;20061;-90
2021/10/01 13:57:45;;;;;;;2.83;0.45;;;20.20;66.80;;;;;;10296165;28;20050;-90
2021/10/01 14:02:48;;;;;;;1.00;0.30;;;20.40;65.50;;;;;;10279820;28;20129;-90
2021/10/01 14:07:51;;;;;;;4.32;0.30;;;20.10;66.80;;;;;;10235347;28;20061;-90
2021/10/01 14:12:57;;;;;;;4.30;0.20;;;20.10;65.30;;;;;;10296929;28;20050;-90
2021/10/01 14:18:00;;;;;;;1.30;0.20;;;20.10;65.20;;;;;;10225319;28;20050;-90
2021/10/01 14:23:03;;;;;;;2.50;0.20;;;20.30;66.40;;;;;;10282279;28;20087;-90
2021/10/01 14:28:07;;;;;;;1.08;0.60;;;19.80;64.80;;;;;;10321358;28;20080;-90
2021/10/01 14:33:09;;;;;;;3.72;0.30;;;20.10;65.30;;;;;;10275926;28;20054;-90
2021/10/01 14:38:17;;;;;;;1.50;0.20;;;20.20;68.40;;;;;;10300483;28;20456;-90
2021/10/01 14:43:20;;;;;;;0.50;0.20;;;19.90;63.40;;;;;;10226254;28;20401;-90
2021/10/01 14:48:23;;;;;;;2.50;0.20;;;19.60;65.30;;;;;;10316756;28;20058;-90
2021/10/01 14:53:25;;;;;;;1.92;0.30;;;19.70;64.40;;;;;;10250749;28;20096;-89
2021/10/01 14:58:27;;;;;;;1.80;0.10;;;20.00;67.80;;;;;;10260897;28;20054;-90
2021/10/01 15:03:31;;;;;;;2.80;0.20;;;20.00;64.00;;;;;;10317340;28;20049;-90
2021/10/01 15:08:33;;;;;;;3.22;0.40;;;19.90;63.60;;;;;;10289435;28;20603;-90
2021/10/01 15:13:35;;;;;;;2.35;0.20;;;19.30;64.20;;;;;;10305717;28;20499;-90
2021/10/01 15:18:38;;;;;;;2.38;0.28;;;19.20;64.90;;;;;;10239066;28;20082;-90
2021/10/01 15:23:45;;;;;;;2.58;0.35;;;18.70;66.30;;;;;;10319231;28;20042;-90
2021/10/01 15:28:47;;;;;;;1.98;0.20;;;18.60;67.30;;;;;;10192605;28;20055;-90
2021/10/01 15:33:50;;;;;;;1.25;0.30;;;18.60;68.10;;;;;;10274973;28;20511;-90
2021/10/01 15:38:56;;;;;;;2.13;0.20;;;18.40;68.40;;;;;;10275415;28;20088;-90
2021/10/01 15:43:58;;;;;;;2.33;0.55;;;18.30;68.30;;;;;;10248777;28;20483;-90
2021/10/01 15:49:02;;;;;;;2.47;0.35;;;18.20;71.60;;;;;;10218120;28;20051;-89
2021/10/01 15:54:04;;;;;;;0.28;0.15;;;18.00;73.30;;;;;;10198770;28;20046;-90
2021/10/01 15:59:10;;;;;;;1.90;0.15;;;17.90;70.10;;;;;;10206666;28;20062;-90
2021/10/01 16:04:19;;;;;;;1.02;0.30;;;17.80;72.10;;;;;;10268502;28;20057;-90
2021/10/01 16:09:29;;;;;;;3.00;0.28;;;17.60;73.10;;;;;;10215349;28;20049;-90
2021/10/01 16:14:32;;;;;;;3.75;0.30;;;17.60;71.30;;;;;;10238932;28;20122;-89
2021/10/01 16:19:35;;;;;;;3.53;0.40;;;17.40;74.30;;;;;;10175579;28;20535;-89
2021/10/01 16:24:42;;;;;;;2.90;0.40;;;17.20;74.40;;;;;;10245305;28;20528;-90
2021/10/01 16:29:48;;;;;;;1.58;0.45;;;17.00;77.70;;;;;;10226271;28;20059;-90
2021/10/01 16:34:51;;;;;;;3.08;0.45;;;16.90;79.70;;;;;;10212097;28;20054;-90
2021/10/01 16:40:07;;;;;;;0.95;0.30;;;16.70;79.90;;;;;;10235395;28;20093;-90
2021/10/01 16:45:15;;;;;;;1.92;0.47;;;16.40;82.70;;;;;;10247367;28;20100;-90
2021/10/01 16:50:17;;;;;;;4.10;0.75;;;16.30;86.00;;;;;;10245172;28;20071;-90
2021/10/01 16:55:21;;;;;;;4.53;0.60;;;16.00;85.50;;;;;;10265907;28;20129;-90
2021/10/01 17:00:24;;;;;;;1.50;0.50;;;15.70;88.40;;;;;;10210520;28;20448;-90
2021/10/01 17:05:28;;;;;;;1.85;0.60;;;15.50;88.20;;;;;;10296320;28;20129;-89
2021/10/01 17:10:31;;;;;;;1.63;0.45;;;15.40;89.10;;;;;;10335493;28;20056;-89
2021/10/01 17:15:33;;;;;;;5.35;1.50;;;15.30;88.50;;;;;;10323706;28;20133;-89
2021/10/01 17:20:37;;;;;;;5.43;1.00;;;15.20;90.20;;;;;;10315042;28;20105;-89
2021/10/01 17:25:40;;;;;;;4.65;1.05;;;15.00;91.70;;;;;;10281959;28;20973;-91
2021/10/01 17:30:42;;;;;;;6.78;3.00;;;14.90;92.50;;;;;;10225113;28;20046;-89
2021/10/01 17:35:45;;;;;;;12.43;4.53;;;14.80;94.30;;;;;;10211709;28;20055;-90
2021/10/01 17:40:48;;;;;;;12.43;4.35;;;14.70;95.30;;;;;;10312528;28;20491;-90
2021/10/01 17:45:51;;;;;;;7.85;3.85;;;14.50;95.60;;;;;;10298896;28;20054;-89
2021/10/01 17:50:53;;;;;;;4.28;2.63;;;14.40;96.10;;;;;;10328180;28;20141;-91
2021/10/01 17:55:56;;;;;;;6.20;2.53;;;14.20;96.40;;;;;;10256329;28;21313;-90
2021/10/01 18:01:00;;;;;;;9.10;5.35;;;14.10;96.10;;;;;;10314802;28;20049;-91
2021/10/01 18:06:03;;;;;;;14.15;5.93;;;14.10;95.90;;;;;;10326634;28;20045;-90
2021/10/01 18:11:05;;;;;;;8.75;5.43;;;14.00;96.80;;;;;;10323546;28;20361;-91
2021/10/01 18:16:07;;;;;;;9.45;5.10;;;13.90;97.90;;;;;;10344976;28;20068;-91
2021/10/01 18:21:09;;;;;;;13.50;5.68;;;13.80;98.90;;;;;;10333730;28;20046;-92
2021/10/01 18:26:11;;;;;;;8.48;5.43;;;13.70;99.90;;;;;;10332141;28;20065;-92
2021/10/01 18:31:13;;;;;;;9.77;4.45;;;13.50;99.90;;;;;;10335224;28;20054;-93
2021/10/01 18:36:22;;;;;;;9.13;3.97;;;13.40;99.90;;;;;;10334516;28;20054;-92
2021/10/01 18:41:32;;;;;;;12.93;6.35;;;13.40;99.90;;;;;;10299831;28;20072;-92
2021/10/01 18:46:34;;;;;;;20.60;8.15;;;13.20;99.90;;;;;;10277684;28;20054;-91
2021/10/01 18:51:38;;;;;;;13.85;6.28;;;13.10;99.90;;;;;;10344022;28;20045;-90
2021/10/01 18:56:40;;;;;;;11.55;4.43;;;13.10;99.90;;;;;;10349856;28;20061;-90
2021/10/01 19:01:42;;;;;;;8.10;3.30;;;13.00;99.90;;;;;;10311137;28;20492;-90
2021/10/01 19:06:59;;;;;;;8.13;3.78;;;12.90;99.90;;;;;;10352503;28;20112;-90
2021/10/01 19:12:01;;;;;;;12.02;6.10;;;12.80;99.90;;;;;;10364900;28;20042;-90
2021/10/01 19:17:03;;;;;;;10.70;6.03;;;12.80;99.90;;;;;;10337642;28;20050;-91
2021/10/01 19:22:09;;;;;;;13.25;4.10;;;12.70;99.90;;;;;;10322847;28;20045;-90
2021/10/01 19:27:17;;;;;;;14.00;7.55;;;12.60;99.90;;;;;;10333560;28;20569;-91
2021/10/01 19:32:20;;;;;;;14.52;6.80;;;12.50;99.90;;;;;;10348521;28;20061;-90
2021/10/01 19:37:23;;;;;;;9.75;5.63;;;12.40;99.90;;;;;;10329941;28;20080;-90
2021/10/01 19:42:25;;;;;;;11.35;6.03;;;12.20;99.90;;;;;;10355735;28;20498;-90
2021/10/01 19:47:33;;;;;;;9.75;5.63;;;;;;;;;;10362467;28;20136;-90
2021/10/01 19:52:35;;;;;;;10.05;4.88;;;12.00;99.90;;;;;;10323214;28;20045;-90
2021/10/01 19:57:39;;;;;;;12.25;4.65;;;12.00;99.90;;;;;;10317613;28;20050;-90
2021/10/01 20:02:47;;;;;;;13.13;5.10;;;;;;;;;;10339239;28;20091;-91
2021/10/01 20:07:51;;;;;;;16.58;5.43;;;;;;;;;;10356539;28;20061;-90
2021/10/01 20:12:57;;;;;;;15.20;7.57;;;11.70;99.90;;;;;;10366531;28;20053;-90
2021/10/01 20:18:00;;;;;;;22.73;12.43;;;11.60;99.90;;;;;;10360384;28;20063;-90
2021/10/01 20:23:08;;;;;;;19.30;11.30;;;11.40;99.90;;;;;;10366249;28;20397;-90
2021/10/01 20:49:20;;;;;;;8.80;4.72;;;11.20;99.90;;;;;;10355888;28;20092;-89
2021/10/01 20:54:24;;;;;;;9.57;5.20;;;11.10;99.90;;;;;;10313738;23;20049;-56
2021/10/01 20:59:30;;;;;;;12.73;5.68;;;11.10;99.90;;;;;;10357329;28;20556;-57
2021/10/01 21:37:11;;;;;;;6.50;2.63;;;10.70;99.90;;;;;;10329734;28;20073;-57
2021/10/01 21:42:29;;;;;;;5.28;2.20;;;10.60;99.90;;;;;;10320338;28;20136;-57
2021/10/01 21:47:37;;;;;;;5.38;2.35;;;10.50;99.90;;;;;;10329828;28;20468;-56
2021/10/01 21:52:43;;;;;;;6.10;3.50;;;10.50;99.90;;;;;;10315500;28;20145;-57
2021/10/01 21:57:45;;;;;;;5.63;2.47;;;10.40;99.90;;;;;;10312971;28;20085;-56
2021/10/01 22:24:07;;;;;;;6.03;3.60;;;10.40;99.90;;;;;;10328329;28;20108;-58
2021/10/01 22:29:09;;;;;;;7.90;3.00;;;10.50;99.90;;;;;;10341354;28;20124;-59
2021/10/01 22:34:11;;;;;;;6.45;2.85;;;10.50;99.90;;;;;;10338690;28;20476;-56
2021/10/01 22:39:15;;;;;;;8.68;2.25;;;10.50;99.90;;;;;;10338826;28;20051;-58
2021/10/01 22:44:22;;;;;;;5.78;2.08;;;;;;;;;;10338166;28;20058;-55
2021/10/01 22:49:25;;;;;;;7.50;2.53;;;10.50;99.90;;;;;;10337538;28;20509;-58
2021/10/01 22:54:27;;;;;;;6.97;1.92;;;10.60;99.90;;;;;;10347469;28;20052;-58
2021/10/01 22:59:30;;;;;;;4.57;1.77;;;10.60;99.90;;;;;;10377345;28;20115;-57
2021/10/01 23:04:32;;;;;;;5.10;1.65;;;10.60;99.90;;;;;;10375373;28;20491;-57
2021/10/01 23:09:35;;;;;;;7.30;2.00;;;10.60;99.90;;;;;;10376059;28;20068;-57
2021/10/01 23:51:41;;;;;;;4.00;1.40;;;;;;;;;;10373535;28;20054;-59
